Time,TemperatureF,DewpointF,PressureIn,WindDirection,WindDirectionDegrees,WindSpeedMPH,WindSpeedGustMPH,Humidity,HourlyPrecipIn,Conditions,Clouds,dailyrainin,SoftwareType,DateUTC
2013-08-20 00:00:00,63.2,61.8,29.89,WSW,251,0.0,1.0,95,0.00,,---,0.00,VWS V14.00,2013-08-20 05:00:00,
2013-08-20 00:02:00,63.5,62.0,29.89,WSW,251,0.0,0.0,95,0.00,,---,0.00,VWS V14.00,2013-08-20 05:02:00,
2013-08-20 00:05:00,63.6,62.2,29.89,WSW,251,0.0,1.0,95,0.00,,---,0.00,VWS V14.00,2013-08-20 05:05:00,
2013-08-20 00:07:00,63.8,62.0,29.89,WSW,250,0.0,0.0,94,0.00,,---,0.00,VWS V14.00,2013-08-20 05:07:00,
2013-08-20 00:10:00,63.8,62.0,29.89,WSW,251,0.0,0.0,94,0.00,,---,0.00,VWS V14.00,2013-08-20 05:10:00,
2013-08-20 00:12:00,63.9,62.1,29.89,WSW,251,0.0,0.0,94,0.00,,---,0.00,VWS V14.00,2013-08-20 05:12:00,
2013-08-20 00:15:00,63.8,62.0,29.89,WSW,250,0.0,0.0,94,0.00,,---,0.00,VWS V14.00,2013-08-20 05:15:00,
2013-08-20 00:17:00,63.8,61.7,29.89,WSW,250,0.0,0.0,93,0.00,,---,0.00,VWS V14.00,2013-08-20 05:17:00,
2013-08-20 00:20:00,63.8,61.7,29.89,WSW,250,0.0,0.0,93,0.00,,---,0.00,VWS V14.00,2013-08-20 05:20:00,
2013-08-20 00:22:00,63.7,61.6,29.89,WSW,251,0.0,0.0,93,0.00,,---,0.00,VWS V14.00,2013-08-20 05:22:00,
2013-08-20 00:25:00,63.6,61.5,29.89,WSW,251,0.0,0.0,93,0.00,,---,0.00,VWS V14.00,2013-08-20 05:25:00,
2013-08-20 00:27:00,63.5,61.4,29.89,WSW,251,0.0,0.0,93,0.00,,---,0.00,VWS V14.00,2013-08-20 05:27:00,
2013-08-20 00:30:00,63.4,61.3,29.89,WSW,251,0.0,0.0,93,0.00,,---,0.00,VWS V14.00,2013-08-20 05:30:00,
2013-08-20 00:32:00,63.3,61.2,29.89,WSW,251,0.0,0.0,93,0.00,,---,0.00,VWS V14.00,2013-08-20 05:32:00,
2013-08-20 00:35:00,63.2,61.2,29.89,WSW,251,0.0,0.0,93,0.00,,---,0.00,VWS V14.00,2013-08-20 05:35:00,
2013-08-20 00:37:00,63.2,61.5,29.89,WSW,250,0.0,1.0,94,0.00,,---,0.00,VWS V14.00,2013-08-20 05:37:00,
2013-08-20 00:40:00,63.3,61.5,29.89,WSW,250,0.0,1.0,94,0.00,,---,0.00,VWS V14.00,2013-08-20 05:40:00,
2013-08-20 00:42:00,63.4,61.7,29.89,WSW,251,0.0,0.0,94,0.00,,---,0.00,VWS V14.00,2013-08-20 05:42:00,
2013-08-20 00:45:00,63.5,61.8,29.89,WSW,251,0.0,0.0,94,0.00,,---,0.00,VWS V14.00,2013-08-20 05:45:00,
2013-08-20 00:47:00,63.4,61.3,29.89,WSW,251,0.0,0.0,93,0.00,,---,0.00,VWS V14.00,2013-08-20 05:47:00,
2013-08-20 00:50:00,63.4,61.7,29.89,WSW,251,0.0,0.0,94,0.00,,---,0.00,VWS V14.00,2013-08-20 05:50:00,
2013-08-20 00:53:00,63.4,61.7,29.89,WSW,251,0.0,1.0,94,0.00,,---,0.00,VWS V14.00,2013-08-20 05:53:00,
2013-08-20 00:55:00,63.5,61.8,29.89,WSW,250,0.0,1.0,94,0.00,,---,0.00,VWS V14.00,2013-08-20 05:55:00,
2013-08-20 00:58:00,63.6,61.8,29.89,WSW,251,0.0,1.0,94,0.00,,---,0.00,VWS V14.00,2013-08-20 05:58:00,
2013-08-20 01:00:00,63.6,61.8,29.89,WSW,250,0.0,1.0,94,0.00,,---,0.00,VWS V14.00,2013-08-20 06:00:00,
2013-08-20 01:03:00,63.6,61.5,29.89,WSW,250,0.0,1.0,93,0.00,,---,0.00,VWS V14.00,2013-08-20 06:03:00,
2013-08-20 01:05:00,63.6,61.5,29.89,WSW,251,0.0,1.0,93,0.00,,---,0.00,VWS V14.00,2013-08-20 06:05:00,
2013-08-20 01:08:00,63.7,61.6,29.89,WSW,251,0.0,1.0,93,0.00,,---,0.00,VWS V14.00,2013-08-20 06:08:00,
2013-08-20 01:10:00,63.7,61.6,29.89,WSW,251,0.0,1.0,93,0.00,,---,0.00,VWS V14.00,2013-08-20 06:10:00,
2013-08-20 01:13:00,63.8,61.7,29.89,WSW,251,0.0,1.0,93,0.00,,---,0.00,VWS V14.00,2013-08-20 06:13:00,
2013-08-20 01:15:00,63.9,61.8,29.89,WSW,250,0.0,1.0,93,0.00,,---,0.00,VWS V14.00,2013-08-20 06:15:00,
2013-08-20 01:18:00,63.9,61.8,29.89,WSW,251,0.0,0.0,93,0.00,,---,0.00,VWS V14.00,2013-08-20 06:18:00,
2013-08-20 01:20:00,64.0,61.9,29.89,WSW,251,0.0,1.0,93,0.00,,---,0.00,VWS V14.00,2013-08-20 06:20:00,
2013-08-20 01:23:00,64.0,61.9,29.89,WSW,251,0.0,1.0,93,0.00,,---,0.00,VWS V14.00,2013-08-20 06:23:00,
2013-08-20 01:25:00,64.0,61.9,29.89,WSW,251,0.0,1.0,93,0.00,,---,0.00,VWS V14.00,2013-08-20 06:25:00,
2013-08-20 01:28:00,64.0,61.6,29.89,WSW,251,0.0,1.0,92,0.00,,---,0.00,VWS V14.00,2013-08-20 06:28:00,
2013-08-20 01:30:00,64.0,61.6,29.89,WSW,250,0.0,1.0,92,0.00,,---,0.00,VWS V14.00,2013-08-20 06:30:00,
2013-08-20 01:33:00,64.0,61.6,29.89,WSW,250,0.0,1.0,92,0.00,,---,0.00,VWS V14.00,2013-08-20 06:33:00,
2013-08-20 01:35:00,64.0,61.6,29.89,WSW,251,0.0,1.0,92,0.00,,---,0.00,VWS V14.00,2013-08-20 06:35:00,
2013-08-20 01:38:00,64.0,61.6,29.89,WSW,251,0.0,1.0,92,0.00,,---,0.00,VWS V14.00,2013-08-20 06:38:00,
2013-08-20 01:40:00,64.0,61.6,29.89,WSW,251,0.0,1.0,92,0.00,,---,0.00,VWS V14.00,2013-08-20 06:40:00,
2013-08-20 01:43:00,63.8,61.1,29.89,WSW,251,0.0,0.0,91,0.00,,---,0.00,VWS V14.00,2013-08-20 06:43:00,
2013-08-20 01:45:00,63.8,61.1,29.89,WSW,251,0.0,0.0,91,0.00,,---,0.00,VWS V14.00,2013-08-20 06:45:00,
2013-08-20 01:48:00,63.6,61.2,29.89,WSW,251,0.0,1.0,92,0.00,,---,0.00,VWS V14.00,2013-08-20 06:48:00,
2013-08-20 01:50:00,63.6,61.2,29.89,WSW,251,0.0,1.0,92,0.00,,---,0.00,VWS V14.00,2013-08-20 06:50:00,
2013-08-20 01:53:00,63.7,61.3,29.89,WSW,251,0.0,1.0,92,0.00,,---,0.00,VWS V14.00,2013-08-20 06:53:00,
2013-08-20 01:55:00,63.7,61.3,29.89,WSW,250,0.0,1.0,92,0.00,,---,0.00,VWS V14.00,2013-08-20 06:55:00,
2013-08-20 01:58:00,63.8,61.4,29.89,WSW,250,0.0,1.0,92,0.00,,---,0.00,VWS V14.00,2013-08-20 06:58:00,
2013-08-20 02:00:00,63.8,61.4,29.89,WSW,251,0.0,1.0,92,0.00,,---,0.00,VWS V14.00,2013-08-20 07:00:00,
2013-08-20 02:03:00,63.4,60.7,29.89,WSW,250,0.0,0.0,91,0.00,,---,0.00,VWS V14.00,2013-08-20 07:03:00,
2013-08-20 02:05:00,63.3,60.6,29.89,WSW,250,0.0,1.0,91,0.00,,---,0.00,VWS V14.00,2013-08-20 07:05:00,
2013-08-20 02:08:00,63.2,60.8,29.89,WSW,251,0.0,0.0,92,0.00,,---,0.00,VWS V14.00,2013-08-20 07:08:00,
2013-08-20 02:10:00,63.3,60.9,29.89,WSW,250,1.0,1.0,92,0.00,,---,0.00,VWS V14.00,2013-08-20 07:10:00,
2013-08-20 02:13:00,63.3,60.9,29.89,WSW,251,0.0,1.0,92,0.00,,---,0.00,VWS V14.00,2013-08-20 07:13:00,
2013-08-20 02:15:00,63.2,60.8,29.89,WSW,250,0.0,1.0,92,0.00,,---,0.00,VWS V14.00,2013-08-20 07:15:00,
2013-08-20 02:18:00,63.1,60.7,29.89,WSW,250,0.0,1.0,92,0.00,,---,0.00,VWS V14.00,2013-08-20 07:18:00,
2013-08-20 02:20:00,63.1,60.7,29.89,WSW,251,0.0,1.0,92,0.00,,---,0.00,VWS V14.00,2013-08-20 07:20:00,
2013-08-20 02:23:00,63.2,60.8,29.89,WSW,251,0.0,1.0,92,0.00,,---,0.00,VWS V14.00,2013-08-20 07:23:00,
2013-08-20 02:25:00,63.2,61.2,29.89,WSW,251,0.0,1.0,93,0.00,,---,0.00,VWS V14.00,2013-08-20 07:25:00,
2013-08-20 02:28:00,63.4,61.3,29.89,WSW,250,0.0,1.0,93,0.00,,---,0.00,VWS V14.00,2013-08-20 07:28:00,
2013-08-20 02:30:00,63.4,61.0,29.89,WSW,250,0.0,1.0,92,0.00,,---,0.00,VWS V14.00,2013-08-20 07:30:00,
2013-08-20 02:33:00,63.2,60.5,29.89,WSW,251,0.0,0.0,91,0.00,,---,0.00,VWS V14.00,2013-08-20 07:33:00,
2013-08-20 02:35:00,63.1,60.4,29.89,WSW,251,0.0,0.0,91,0.00,,---,0.00,VWS V14.00,2013-08-20 07:35:00,
2013-08-20 02:38:00,62.8,60.1,29.89,WSW,251,0.0,0.0,91,0.00,,---,0.00,VWS V14.00,2013-08-20 07:38:00,
2013-08-20 02:40:00,62.8,60.1,29.89,WSW,250,0.0,0.0,91,0.00,,---,0.00,VWS V14.00,2013-08-20 07:40:00,
2013-08-20 02:44:00,62.3,59.6,29.89,WSW,250,0.0,0.0,91,0.00,,---,0.00,VWS V14.00,2013-08-20 07:44:00,
2013-08-20 02:45:00,62.2,59.5,29.89,WSW,251,0.0,0.0,91,0.00,,---,0.00,VWS V14.00,2013-08-20 07:45:00,
2013-08-20 02:49:00,61.7,59.0,29.89,WSW,251,0.0,0.0,91,0.00,,---,0.00,VWS V14.00,2013-08-20 07:49:00,
2013-08-20 02:50:00,61.6,59.0,29.89,WSW,250,0.0,0.0,91,0.00,,---,0.00,VWS V14.00,2013-08-20 07:50:00,
2013-08-20 02:54:00,61.4,59.1,29.90,WSW,250,0.0,0.0,92,0.00,,---,0.00,VWS V14.00,2013-08-20 07:54:00,
2013-08-20 02:55:00,61.4,59.1,29.90,WSW,251,0.0,0.0,92,0.00,,---,0.00,VWS V14.00,2013-08-20 07:55:00,
2013-08-20 02:59:00,61.3,59.0,29.90,WSW,251,0.0,1.0,92,0.00,,---,0.00,VWS V14.00,2013-08-20 07:59:00,
2013-08-20 03:00:00,61.3,59.0,29.90,WSW,251,0.0,1.0,92,0.00,,---,0.00,VWS V14.00,2013-08-20 08:00:00,
2013-08-20 03:04:00,61.5,59.5,29.90,WSW,250,0.0,1.0,93,0.00,,---,0.00,VWS V14.00,2013-08-20 08:04:00,
2013-08-20 03:05:00,61.5,59.5,29.90,WSW,251,0.0,1.0,93,0.00,,---,0.00,VWS V14.00,2013-08-20 08:05:00,
2013-08-20 03:09:00,62.2,60.8,29.90,WSW,251,0.0,1.0,95,0.00,,---,0.00,VWS V14.00,2013-08-20 08:09:00,
2013-08-20 03:10:00,62.3,60.8,29.90,WSW,250,0.0,1.0,95,0.00,,---,0.00,VWS V14.00,2013-08-20 08:10:00,
2013-08-20 03:14:00,62.4,60.7,29.90,WSW,250,0.0,1.0,94,0.00,,---,0.00,VWS V14.00,2013-08-20 08:14:00,
2013-08-20 03:15:00,62.4,60.7,29.90,WSW,251,0.0,1.0,94,0.00,,---,0.00,VWS V14.00,2013-08-20 08:15:00,
2013-08-20 03:19:00,62.7,61.0,29.89,WSW,251,0.0,1.0,94,0.00,,---,0.00,VWS V14.00,2013-08-20 08:19:00,
2013-08-20 03:20:00,62.7,61.0,29.89,WSW,251,0.0,1.0,94,0.00,,---,0.00,VWS V14.00,2013-08-20 08:20:00,
2013-08-20 03:24:00,63.1,61.3,29.89,WSW,251,0.0,0.0,94,0.00,,---,0.00,VWS V14.00,2013-08-20 08:24:00,
2013-08-20 03:25:00,63.2,61.5,29.89,WSW,250,0.0,0.0,94,0.00,,---,0.00,VWS V14.00,2013-08-20 08:25:00,
2013-08-20 03:29:00,63.2,61.5,29.89,WSW,251,0.0,1.0,94,0.00,,---,0.00,VWS V14.00,2013-08-20 08:29:00,
2013-08-20 03:30:00,63.3,61.5,29.89,WSW,251,0.0,1.0,94,0.00,,---,0.00,VWS V14.00,2013-08-20 08:30:00,
2013-08-20 03:34:00,63.1,61.3,29.89,WSW,250,0.0,1.0,94,0.00,,---,0.00,VWS V14.00,2013-08-20 08:34:00,
2013-08-20 03:35:00,63.1,61.3,29.89,WSW,251,0.0,1.0,94,0.00,,---,0.00,VWS V14.00,2013-08-20 08:35:00,
2013-08-20 03:39:00,63.2,61.2,29.89,WSW,251,0.0,1.0,93,0.00,,---,0.00,VWS V14.00,2013-08-20 08:39:00,
2013-08-20 03:40:00,63.2,61.2,29.89,WSW,250,0.0,1.0,93,0.00,,---,0.00,VWS V14.00,2013-08-20 08:40:00,
2013-08-20 03:44:00,62.5,60.5,29.90,WSW,250,0.0,1.0,93,0.00,,---,0.00,VWS V14.00,2013-08-20 08:44:00,
2013-08-20 03:45:00,62.5,60.5,29.90,WSW,250,0.0,1.0,93,0.00,,---,0.00,VWS V14.00,2013-08-20 08:45:00,
2013-08-20 03:49:00,62.3,60.2,29.90,WSW,251,0.0,1.0,93,0.00,,---,0.00,VWS V14.00,2013-08-20 08:49:00,
2013-08-20 03:50:00,62.3,60.3,29.90,WSW,251,0.0,1.0,93,0.00,,---,0.00,VWS V14.00,2013-08-20 08:50:00,
2013-08-20 03:54:00,62.1,60.1,29.90,WSW,251,0.0,1.0,93,0.00,,---,0.00,VWS V14.00,2013-08-20 08:54:00,
2013-08-20 03:55:00,62.1,60.1,29.90,WSW,251,0.0,1.0,93,0.00,,---,0.00,VWS V14.00,2013-08-20 08:55:00,
2013-08-20 03:59:00,61.9,60.2,29.89,WSW,250,0.0,0.0,94,0.00,,---,0.00,VWS V14.00,2013-08-20 08:59:00,
2013-08-20 04:00:00,61.9,60.2,29.89,WSW,250,0.0,0.0,94,0.00,,---,0.00,VWS V14.00,2013-08-20 09:00:00,
2013-08-20 04:04:00,61.9,60.2,29.90,WSW,250,0.0,0.0,94,0.00,,---,0.00,VWS V14.00,2013-08-20 09:04:00,
2013-08-20 04:05:00,61.9,60.2,29.90,WSW,250,0.0,0.0,94,0.00,,---,0.00,VWS V14.00,2013-08-20 09:05:00,
2013-08-20 04:09:00,61.9,60.2,29.90,WSW,251,0.0,1.0,94,0.00,,---,0.00,VWS V14.00,2013-08-20 09:09:00,
2013-08-20 04:10:00,61.9,60.2,29.90,WSW,251,0.0,1.0,94,0.00,,---,0.00,VWS V14.00,2013-08-20 09:10:00,
2013-08-20 04:14:00,62.1,60.4,29.89,WSW,250,0.0,0.0,94,0.00,,---,0.00,VWS V14.00,2013-08-20 09:14:00,
2013-08-20 04:15:00,62.1,60.4,29.90,WSW,251,0.0,0.0,94,0.00,,---,0.00,VWS V14.00,2013-08-20 09:15:00,
2013-08-20 04:19:00,62.1,60.7,29.90,WSW,250,0.0,0.0,95,0.00,,---,0.00,VWS V14.00,2013-08-20 09:19:00,
2013-08-20 04:20:00,62.1,60.7,29.90,WSW,250,0.0,0.0,95,0.00,,---,0.00,VWS V14.00,2013-08-20 09:20:00,
2013-08-20 04:24:00,62.3,60.8,29.90,WSW,251,0.0,0.0,95,0.00,,---,0.00,VWS V14.00,2013-08-20 09:24:00,
2013-08-20 04:25:00,62.3,60.8,29.90,WSW,251,0.0,0.0,95,0.00,,---,0.00,VWS V14.00,2013-08-20 09:25:00,
2013-08-20 04:29:00,62.2,60.8,29.90,WSW,251,0.0,0.0,95,0.00,,---,0.00,VWS V14.00,2013-08-20 09:29:00,
2013-08-20 04:30:00,62.2,60.8,29.90,WSW,251,0.0,0.0,95,0.00,,---,0.00,VWS V14.00,2013-08-20 09:30:00,
2013-08-20 04:34:00,62.2,60.8,29.90,WSW,250,0.0,0.0,95,0.00,,---,0.00,VWS V14.00,2013-08-20 09:34:00,
2013-08-20 04:35:00,62.2,60.8,29.90,WSW,251,0.0,0.0,95,0.00,,---,0.00,VWS V14.00,2013-08-20 09:35:00,
2013-08-20 04:39:00,62.3,60.8,29.90,WSW,251,0.0,0.0,95,0.00,,---,0.00,VWS V14.00,2013-08-20 09:39:00,
2013-08-20 04:40:00,62.3,60.8,29.90,WSW,251,0.0,0.0,95,0.00,,---,0.00,VWS V14.00,2013-08-20 09:40:00,
2013-08-20 04:44:00,62.6,61.2,29.89,WSW,251,0.0,1.0,95,0.00,,---,0.00,VWS V14.00,2013-08-20 09:44:00,
2013-08-20 04:45:00,62.6,61.2,29.89,WSW,251,0.0,1.0,95,0.00,,---,0.00,VWS V14.00,2013-08-20 09:45:00,
2013-08-20 04:49:00,62.7,61.2,29.90,WSW,251,0.0,1.0,95,0.00,,---,0.00,VWS V14.00,2013-08-20 09:49:00,
2013-08-20 04:50:00,62.7,61.2,29.90,WSW,251,0.0,1.0,95,0.00,,---,0.00,VWS V14.00,2013-08-20 09:50:00,
2013-08-20 04:54:00,62.8,61.3,29.90,WSW,250,0.0,0.0,95,0.00,,---,0.00,VWS V14.00,2013-08-20 09:54:00,
2013-08-20 04:55:00,62.8,61.3,29.90,WSW,250,0.0,0.0,95,0.00,,---,0.00,VWS V14.00,2013-08-20 09:55:00,
2013-08-20 04:59:00,62.8,61.3,29.90,WSW,251,0.0,0.0,95,0.00,,---,0.00,VWS V14.00,2013-08-20 09:59:00,
2013-08-20 05:00:00,62.8,61.3,29.90,WSW,251,0.0,0.0,95,0.00,,---,0.00,VWS V14.00,2013-08-20 10:00:00,
2013-08-20 05:04:00,62.8,61.3,29.90,WSW,250,0.0,0.0,95,0.00,,---,0.00,VWS V14.00,2013-08-20 10:04:00,
2013-08-20 05:05:00,62.8,61.3,29.90,WSW,251,0.0,1.0,95,0.00,,---,0.00,VWS V14.00,2013-08-20 10:05:00,
2013-08-20 05:09:00,62.9,61.5,29.90,WSW,251,0.0,0.0,95,0.00,,---,0.00,VWS V14.00,2013-08-20 10:09:00,
2013-08-20 05:10:00,62.9,61.5,29.90,WSW,251,0.0,1.0,95,0.00,,---,0.00,VWS V14.00,2013-08-20 10:10:00,
2013-08-20 05:14:00,62.6,61.2,29.90,WSW,250,0.0,0.0,95,0.00,,---,0.00,VWS V14.00,2013-08-20 10:14:00,
2013-08-20 05:15:00,62.6,61.2,29.90,WSW,251,0.0,1.0,95,0.00,,---,0.00,VWS V14.00,2013-08-20 10:15:00,
2013-08-20 05:19:00,62.5,61.0,29.90,WSW,251,0.0,0.0,95,0.00,,---,0.00,VWS V14.00,2013-08-20 10:19:00,
2013-08-20 05:20:00,62.5,61.0,29.90,WSW,251,0.0,1.0,95,0.00,,---,0.00,VWS V14.00,2013-08-20 10:20:00,
2013-08-20 05:24:00,62.6,61.5,29.91,WSW,250,0.0,0.0,96,0.00,,---,0.00,VWS V14.00,2013-08-20 10:24:00,
2013-08-20 05:25:00,62.6,61.5,29.91,WSW,251,0.0,2.0,96,0.00,,---,0.00,VWS V14.00,2013-08-20 10:25:00,
2013-08-20 05:29:00,62.7,61.2,29.91,WSW,251,0.0,0.0,95,0.00,,---,0.00,VWS V14.00,2013-08-20 10:29:00,
2013-08-20 05:30:00,62.7,61.2,29.91,WSW,250,0.0,1.0,95,0.00,,---,0.00,VWS V14.00,2013-08-20 10:30:00,
2013-08-20 05:34:00,62.8,61.7,29.91,WSW,250,0.0,0.0,96,0.00,,---,0.00,VWS V14.00,2013-08-20 10:34:00,
2013-08-20 05:35:00,62.8,61.7,29.91,WSW,250,0.0,1.0,96,0.00,,---,0.00,VWS V14.00,2013-08-20 10:35:00,
2013-08-20 05:39:00,62.8,61.7,29.91,WSW,251,0.0,0.0,96,0.00,,---,0.00,VWS V14.00,2013-08-20 10:39:00,
2013-08-20 05:40:00,62.8,61.7,29.91,WSW,250,0.0,1.0,96,0.00,,---,0.00,VWS V14.00,2013-08-20 10:40:00,
2013-08-20 05:45:00,62.9,61.8,29.91,WSW,250,0.0,0.0,96,0.00,,---,0.00,VWS V14.00,2013-08-20 10:45:00,
2013-08-20 05:50:00,62.9,61.8,29.91,WSW,251,0.0,0.0,96,0.00,,---,0.00,VWS V14.00,2013-08-20 10:50:00,
2013-08-20 05:55:00,63.1,61.9,29.91,WSW,250,0.0,0.0,96,0.00,,---,0.00,VWS V14.00,2013-08-20 10:55:00,
2013-08-20 06:00:00,63.2,62.0,29.92,WSW,251,0.0,0.0,96,0.00,,---,0.00,VWS V14.00,2013-08-20 11:00:00,
2013-08-20 06:05:00,63.4,62.2,29.92,WSW,250,0.0,0.0,96,0.00,,---,0.00,VWS V14.00,2013-08-20 11:05:00,
2013-08-20 06:10:00,63.6,62.4,29.92,WSW,251,0.0,1.0,96,0.00,,---,0.00,VWS V14.00,2013-08-20 11:10:00,
2013-08-20 06:15:00,63.7,62.5,29.92,WSW,250,0.0,0.0,96,0.00,,---,0.00,VWS V14.00,2013-08-20 11:15:00,
2013-08-20 06:20:00,63.7,62.5,29.92,WSW,250,0.0,0.0,96,0.00,,---,0.00,VWS V14.00,2013-08-20 11:20:00,
2013-08-20 06:25:00,63.8,62.6,29.92,WSW,251,0.0,0.0,96,0.00,,---,0.00,VWS V14.00,2013-08-20 11:25:00,
2013-08-20 06:30:00,63.7,62.5,29.92,WSW,250,0.0,0.0,96,0.00,,---,0.00,VWS V14.00,2013-08-20 11:30:00,
2013-08-20 06:35:00,63.6,62.4,29.92,WSW,251,0.0,0.0,96,0.00,,---,0.00,VWS V14.00,2013-08-20 11:35:00,
2013-08-20 06:40:00,63.6,62.4,29.93,WSW,250,0.0,0.0,96,0.00,,---,0.00,VWS V14.00,2013-08-20 11:40:00,
2013-08-20 06:45:00,63.7,62.5,29.93,WSW,251,0.0,0.0,96,0.00,,---,0.00,VWS V14.00,2013-08-20 11:45:00,
2013-08-20 06:50:00,63.8,62.6,29.93,WSW,250,0.0,0.0,96,0.00,,---,0.00,VWS V14.00,2013-08-20 11:50:00,
2013-08-20 06:55:00,63.9,62.7,29.93,WSW,251,0.0,0.0,96,0.00,,---,0.00,VWS V14.00,2013-08-20 11:55:00,
2013-08-20 07:00:00,64.1,62.9,29.93,WSW,250,0.0,0.0,96,0.00,,---,0.00,VWS V14.00,2013-08-20 12:00:00,
2013-08-20 07:05:00,64.3,63.1,29.93,WSW,251,0.0,0.0,96,0.00,,---,0.00,VWS V14.00,2013-08-20 12:05:00,
2013-08-20 07:10:00,64.5,63.3,29.93,WSW,250,0.0,0.0,96,0.00,,---,0.00,VWS V14.00,2013-08-20 12:10:00,
2013-08-20 07:15:00,64.7,63.5,29.93,WSW,251,0.0,0.0,96,0.00,,---,0.00,VWS V14.00,2013-08-20 12:15:00,
2013-08-20 07:20:00,64.9,63.7,29.94,WSW,251,0.0,0.0,96,0.00,,---,0.00,VWS V14.00,2013-08-20 12:20:00,
2013-08-20 07:25:00,65.1,63.9,29.94,WSW,250,0.0,0.0,96,0.00,,---,0.00,VWS V14.00,2013-08-20 12:25:00,
2013-08-20 07:30:00,65.4,64.2,29.94,WSW,251,0.0,0.0,96,0.00,,---,0.00,VWS V14.00,2013-08-20 12:30:00,
2013-08-20 07:35:00,65.6,64.4,29.94,WSW,251,0.0,0.0,96,0.00,,---,0.00,VWS V14.00,2013-08-20 12:35:00,
2013-08-20 07:36:00,65.7,64.5,29.94,WSW,250,0.0,0.0,96,0.00,,---,0.00,VWS V14.00,2013-08-20 12:36:00,
2013-08-20 07:40:00,65.9,64.7,29.94,WSW,251,0.0,0.0,96,0.00,,---,0.00,VWS V14.00,2013-08-20 12:40:00,
2013-08-20 07:41:00,65.9,64.7,29.94,WSW,251,0.0,0.0,96,0.00,,---,0.00,VWS V14.00,2013-08-20 12:41:00,
2013-08-20 07:45:00,66.2,65.0,29.94,WSW,250,0.0,0.0,96,0.00,,---,0.00,VWS V14.00,2013-08-20 12:45:00,
2013-08-20 07:46:00,66.3,64.8,29.94,WSW,251,0.0,0.0,95,0.00,,---,0.00,VWS V14.00,2013-08-20 12:46:00,
2013-08-20 07:50:00,66.7,65.2,29.94,WSW,251,0.0,0.0,95,0.00,,---,0.00,VWS V14.00,2013-08-20 12:50:00,
2013-08-20 07:51:00,66.8,65.3,29.94,WSW,251,0.0,0.0,95,0.00,,---,0.00,VWS V14.00,2013-08-20 12:51:00,
2013-08-20 07:55:00,67.0,65.2,29.94,WSW,251,0.0,0.0,94,0.00,,---,0.00,VWS V14.00,2013-08-20 12:55:00,
2013-08-20 07:56:00,67.2,65.4,29.94,WSW,251,0.0,0.0,94,0.00,,---,0.00,VWS V14.00,2013-08-20 12:56:00,
2013-08-20 08:00:00,67.5,65.7,29.94,WSW,250,0.0,0.0,94,0.00,,---,0.00,VWS V14.00,2013-08-20 13:00:00,
2013-08-20 08:01:00,67.6,65.5,29.94,WSW,251,0.0,0.0,93,0.00,,---,0.00,VWS V14.00,2013-08-20 13:01:00,
2013-08-20 08:05:00,67.8,65.7,29.94,WSW,250,0.0,0.0,93,0.00,,---,0.00,VWS V14.00,2013-08-20 13:05:00,
2013-08-20 08:06:00,67.9,65.8,29.94,WSW,251,0.0,0.0,93,0.00,,---,0.00,VWS V14.00,2013-08-20 13:06:00,
2013-08-20 08:10:00,68.2,65.8,29.94,WSW,251,0.0,1.0,92,0.00,,---,0.00,VWS V14.00,2013-08-20 13:10:00,
2013-08-20 08:11:00,68.3,65.9,29.94,WSW,251,0.0,1.0,92,0.00,,---,0.00,VWS V14.00,2013-08-20 13:11:00,
2013-08-20 08:15:00,68.5,66.1,29.94,WSW,251,0.0,1.0,92,0.00,,---,0.00,VWS V14.00,2013-08-20 13:15:00,
2013-08-20 08:16:00,68.6,66.2,29.94,WSW,250,0.0,0.0,92,0.00,,---,0.00,VWS V14.00,2013-08-20 13:16:00,
2013-08-20 08:20:00,68.8,66.1,29.94,WSW,250,0.0,0.0,91,0.00,,---,0.00,VWS V14.00,2013-08-20 13:20:00,
2013-08-20 08:21:00,68.8,66.1,29.94,WSW,251,0.0,0.0,91,0.00,,---,0.00,VWS V14.00,2013-08-20 13:21:00,
2013-08-20 08:25:00,68.9,65.8,29.94,WSW,250,0.0,1.0,90,0.00,,---,0.00,VWS V14.00,2013-08-20 13:25:00,
2013-08-20 08:26:00,69.0,65.9,29.94,WSW,250,0.0,1.0,90,0.00,,---,0.00,VWS V14.00,2013-08-20 13:26:00,
2013-08-20 08:30:00,69.2,66.2,29.94,WSW,251,0.0,1.0,90,0.00,,---,0.00,VWS V14.00,2013-08-20 13:30:00,
2013-08-20 08:31:00,69.4,66.3,29.94,WSW,251,0.0,1.0,90,0.00,,---,0.00,VWS V14.00,2013-08-20 13:31:00,
2013-08-20 08:35:00,69.8,66.7,29.94,WSW,251,1.0,1.0,90,0.00,,---,0.00,VWS V14.00,2013-08-20 13:35:00,
2013-08-20 08:36:00,70.1,66.7,29.94,WSW,250,0.0,1.0,89,0.00,,---,0.00,VWS V14.00,2013-08-20 13:36:00,
2013-08-20 08:40:00,70.6,67.2,29.94,WSW,250,0.0,1.0,89,0.00,,---,0.00,VWS V14.00,2013-08-20 13:40:00,
2013-08-20 08:41:00,70.8,67.1,29.94,WSW,251,0.0,1.0,88,0.00,,---,0.00,VWS V14.00,2013-08-20 13:41:00,
2013-08-20 08:45:00,71.2,67.1,29.94,WSW,250,1.0,1.0,87,0.00,,---,0.00,VWS V14.00,2013-08-20 13:45:00,
2013-08-20 08:46:00,71.3,66.9,29.94,WSW,250,0.0,2.0,86,0.00,,---,0.00,VWS V14.00,2013-08-20 13:46:00,
2013-08-20 08:50:00,71.5,67.1,29.94,South,170,0.0,3.0,86,0.00,,---,0.00,VWS V14.00,2013-08-20 13:50:00,
2013-08-20 08:51:00,71.8,67.4,29.94,South,169,0.0,1.0,86,0.00,,---,0.00,VWS V14.00,2013-08-20 13:51:00,
2013-08-20 08:55:00,72.2,67.8,29.94,South,169,0.0,1.0,86,0.00,,---,0.00,VWS V14.00,2013-08-20 13:55:00,
2013-08-20 08:56:00,72.5,67.7,29.93,South,170,1.0,2.0,85,0.00,,---,0.00,VWS V14.00,2013-08-20 13:56:00,
2013-08-20 09:00:00,72.5,67.1,29.93,SSE,163,0.0,4.0,83,0.00,,---,0.00,VWS V14.00,2013-08-20 14:00:00,
2013-08-20 09:01:00,72.6,67.5,29.94,SSE,167,0.0,4.0,84,0.00,,---,0.00,VWS V14.00,2013-08-20 14:01:00,
2013-08-20 09:05:00,72.9,67.8,29.94,SSE,167,1.0,4.0,84,0.00,,---,0.00,VWS V14.00,2013-08-20 14:05:00,
2013-08-20 09:06:00,73.1,67.6,29.94,SSE,167,1.0,3.0,83,0.00,,---,0.00,VWS V14.00,2013-08-20 14:06:00,
2013-08-20 09:10:00,73.4,67.9,29.93,South,169,0.0,4.0,83,0.00,,---,0.00,VWS V14.00,2013-08-20 14:10:00,
2013-08-20 09:11:00,73.5,67.7,29.93,South,169,1.0,5.0,82,0.00,,---,0.00,VWS V14.00,2013-08-20 14:11:00,
2013-08-20 09:15:00,73.6,67.4,29.94,South,171,4.0,5.0,81,0.00,,---,0.00,VWS V14.00,2013-08-20 14:15:00,
2013-08-20 09:16:00,73.5,67.3,29.93,South,171,1.0,5.0,81,0.00,,---,0.00,VWS V14.00,2013-08-20 14:16:00,
2013-08-20 09:20:00,73.7,67.9,29.93,South,170,3.0,5.0,82,0.00,,---,0.00,VWS V14.00,2013-08-20 14:20:00,
2013-08-20 09:21:00,73.9,67.7,29.93,SSE,168,4.0,4.0,81,0.00,,---,0.00,VWS V14.00,2013-08-20 14:21:00,
2013-08-20 09:25:00,74.1,67.9,29.93,South,169,2.0,4.0,81,0.00,,---,0.00,VWS V14.00,2013-08-20 14:25:00,
2013-08-20 09:26:00,74.2,67.6,29.93,SSE,168,0.0,3.0,80,0.00,,---,0.00,VWS V14.00,2013-08-20 14:26:00,
2013-08-20 09:30:00,74.4,67.8,29.93,South,169,1.0,4.0,80,0.00,,---,0.00,VWS V14.00,2013-08-20 14:30:00,
2013-08-20 09:31:00,74.6,68.0,29.93,South,173,3.0,4.0,80,0.00,,---,0.00,VWS V14.00,2013-08-20 14:31:00,
2013-08-20 09:35:00,74.9,68.3,29.93,South,169,1.0,4.0,80,0.00,,---,0.00,VWS V14.00,2013-08-20 14:35:00,
2013-08-20 09:36:00,75.1,68.2,29.93,South,170,3.0,3.0,79,0.00,,---,0.00,VWS V14.00,2013-08-20 14:36:00,
2013-08-20 09:40:00,75.3,68.3,29.93,South,169,3.0,5.0,79,0.00,,---,0.00,VWS V14.00,2013-08-20 14:40:00,
2013-08-20 09:41:00,75.4,68.1,29.93,South,169,0.0,4.0,78,0.00,,---,0.00,VWS V14.00,2013-08-20 14:41:00,
2013-08-20 09:45:00,75.8,68.8,29.93,South,169,0.0,4.0,79,0.00,,---,0.00,VWS V14.00,2013-08-20 14:45:00,
2013-08-20 09:46:00,76.1,68.4,29.93,South,169,0.0,2.0,77,0.00,,---,0.00,VWS V14.00,2013-08-20 14:46:00,
2013-08-20 09:50:00,76.5,69.1,29.93,South,169,2.0,4.0,78,0.00,,---,0.00,VWS V14.00,2013-08-20 14:50:00,
2013-08-20 09:51:00,76.8,69.4,29.93,South,169,1.0,2.0,78,0.00,,---,0.00,VWS V14.00,2013-08-20 14:51:00,
2013-08-20 09:55:00,77.2,69.1,29.93,SSE,168,0.0,2.0,76,0.00,,---,0.00,VWS V14.00,2013-08-20 14:55:00,
2013-08-20 09:57:00,77.7,69.9,29.93,SSE,164,4.0,4.0,77,0.00,,---,0.00,VWS V14.00,2013-08-20 14:57:00,
2013-08-20 10:00:00,78.2,68.8,29.93,SSE,158,0.0,5.0,73,0.00,,---,0.00,VWS V14.00,2013-08-20 15:00:00,
2013-08-20 10:02:00,78.4,69.0,29.93,SSE,159,1.0,7.0,73,0.00,,---,0.00,VWS V14.00,2013-08-20 15:02:00,
2013-08-20 10:05:00,78.6,69.2,29.93,SSE,161,3.0,7.0,73,0.00,,---,0.00,VWS V14.00,2013-08-20 15:05:00,
2013-08-20 10:07:00,78.7,69.3,29.92,SSE,163,1.0,5.0,73,0.00,,---,0.00,VWS V14.00,2013-08-20 15:07:00,
2013-08-20 10:10:00,78.7,68.9,29.92,South,175,3.0,6.0,72,0.00,,---,0.00,VWS V14.00,2013-08-20 15:10:00,
2013-08-20 10:12:00,79.0,69.2,29.93,SSE,167,1.0,3.0,72,0.00,,---,0.00,VWS V14.00,2013-08-20 15:12:00,
2013-08-20 10:15:00,79.3,69.1,29.93,SSE,167,0.0,4.0,71,0.00,,---,0.00,VWS V14.00,2013-08-20 15:15:00,
2013-08-20 10:17:00,79.5,69.3,29.93,SSE,162,4.0,5.0,71,0.00,,---,0.00,VWS V14.00,2013-08-20 15:17:00,
2013-08-20 10:20:00,79.4,68.8,29.93,South,173,1.0,5.0,70,0.00,,---,0.00,VWS V14.00,2013-08-20 15:20:00,
2013-08-20 10:22:00,79.4,68.8,29.93,South,173,3.0,5.0,70,0.00,,---,0.00,VWS V14.00,2013-08-20 15:22:00,
2013-08-20 10:25:00,79.5,68.9,29.93,South,170,0.0,5.0,70,0.00,,---,0.00,VWS V14.00,2013-08-20 15:25:00,
2013-08-20 10:27:00,79.8,69.2,29.93,SSE,163,3.0,3.0,70,0.00,,---,0.00,VWS V14.00,2013-08-20 15:27:00,
2013-08-20 10:30:00,80.1,68.6,29.93,SSE,155,2.0,6.0,68,0.00,,---,0.00,VWS V14.00,2013-08-20 15:30:00,
2013-08-20 10:32:00,80.2,68.7,29.93,SSE,165,2.0,6.0,68,0.00,,---,0.00,VWS V14.00,2013-08-20 15:32:00,
2013-08-20 10:35:00,80.4,68.4,29.93,SSE,165,5.0,6.0,67,0.00,,---,0.00,VWS V14.00,2013-08-20 15:35:00,
2013-08-20 10:37:00,80.5,68.5,29.92,SSE,167,3.0,6.0,67,0.00,,---,0.00,VWS V14.00,2013-08-20 15:37:00,
2013-08-20 10:40:00,80.7,69.2,29.92,South,186,1.0,6.0,68,0.00,,---,0.00,VWS V14.00,2013-08-20 15:40:00,
2013-08-20 10:42:00,80.7,68.3,29.92,SSE,152,3.0,8.0,66,0.00,,---,0.00,VWS V14.00,2013-08-20 15:42:00,
2013-08-20 10:45:00,80.8,68.4,29.92,SSE,168,2.0,9.0,66,0.00,,---,0.00,VWS V14.00,2013-08-20 15:45:00,
2013-08-20 10:47:00,81.0,68.1,29.92,South,190,0.0,6.0,65,0.00,,---,0.00,VWS V14.00,2013-08-20 15:47:00,
2013-08-20 10:50:00,81.2,67.9,29.92,South,188,1.0,6.0,64,0.00,,---,0.00,VWS V14.00,2013-08-20 15:50:00,
2013-08-20 10:52:00,81.3,68.0,29.92,South,172,4.0,7.0,64,0.00,,---,0.00,VWS V14.00,2013-08-20 15:52:00,
2013-08-20 10:55:00,81.5,67.7,29.92,WSW,241,2.0,7.0,63,0.00,,---,0.00,VWS V14.00,2013-08-20 15:55:00,
2013-08-20 10:57:00,81.5,67.2,29.92,SSE,163,0.0,9.0,62,0.00,,---,0.00,VWS V14.00,2013-08-20 15:57:00,
2013-08-20 11:00:00,81.5,67.7,29.92,SSE,164,5.0,9.0,63,0.00,,---,0.00,VWS V14.00,2013-08-20 16:00:00,
2013-08-20 11:02:00,81.8,68.0,29.92,SSE,162,1.0,5.0,63,0.00,,---,0.00,VWS V14.00,2013-08-20 16:02:00,
2013-08-20 11:05:00,82.1,68.3,29.92,SSE,150,0.0,5.0,63,0.00,,---,0.00,VWS V14.00,2013-08-20 16:05:00,
2013-08-20 11:07:00,82.3,68.5,29.92,SSE,161,0.0,5.0,63,0.00,,---,0.00,VWS V14.00,2013-08-20 16:07:00,
2013-08-20 11:10:00,82.4,67.6,29.92,SSE,157,5.0,7.0,61,0.00,,---,0.00,VWS V14.00,2013-08-20 16:10:00,
2013-08-20 11:12:00,82.3,67.5,29.92,South,175,7.0,12.0,61,0.00,,---,0.00,VWS V14.00,2013-08-20 16:12:00,
2013-08-20 11:15:00,82.2,67.4,29.92,SSW,196,4.0,12.0,61,0.00,,---,0.00,VWS V14.00,2013-08-20 16:15:00,
2013-08-20 11:17:00,82.2,67.4,29.92,South,183,1.0,5.0,61,0.00,,---,0.00,VWS V14.00,2013-08-20 16:17:00,
2013-08-20 11:20:00,82.2,66.9,29.92,SSW,201,2.0,6.0,60,0.00,,---,0.00,VWS V14.00,2013-08-20 16:20:00,
2013-08-20 11:22:00,82.3,67.5,29.92,South,172,3.0,5.0,61,0.00,,---,0.00,VWS V14.00,2013-08-20 16:22:00,
2013-08-20 11:25:00,82.3,67.5,29.92,WSW,257,2.0,6.0,61,0.00,,---,0.00,VWS V14.00,2013-08-20 16:25:00,
2013-08-20 11:27:00,82.3,67.5,29.92,SSW,204,5.0,9.0,61,0.00,,---,0.00,VWS V14.00,2013-08-20 16:27:00,
2013-08-20 11:30:00,82.3,68.5,29.92,SSE,168,3.0,9.0,63,0.00,,---,0.00,VWS V14.00,2013-08-20 16:30:00,
2013-08-20 11:32:00,82.3,67.0,29.92,South,174,2.0,11.0,60,0.00,,---,0.00,VWS V14.00,2013-08-20 16:32:00,
2013-08-20 11:35:00,82.2,67.9,29.92,South,184,2.0,11.0,62,0.00,,---,0.00,VWS V14.00,2013-08-20 16:35:00,
2013-08-20 11:37:00,82.5,67.7,29.92,SW,230,4.0,5.0,61,0.00,,---,0.00,VWS V14.00,2013-08-20 16:37:00,
2013-08-20 11:40:00,82.6,67.8,29.92,South,180,0.0,6.0,61,0.00,,---,0.00,VWS V14.00,2013-08-20 16:40:00,
2013-08-20 11:42:00,82.5,67.7,29.92,South,171,5.0,8.0,61,0.00,,---,0.00,VWS V14.00,2013-08-20 16:42:00,
2013-08-20 11:45:00,82.6,67.8,29.92,SSE,155,0.0,8.0,61,0.00,,---,0.00,VWS V14.00,2013-08-20 16:45:00,
2013-08-20 11:47:00,82.7,68.8,29.92,South,186,0.0,4.0,63,0.00,,---,0.00,VWS V14.00,2013-08-20 16:47:00,
2013-08-20 11:50:00,83.0,68.7,29.92,SSW,212,5.0,10.0,62,0.00,,---,0.00,VWS V14.00,2013-08-20 16:50:00,
2013-08-20 11:52:00,83.4,68.1,29.92,SSE,167,7.0,9.0,60,0.00,,---,0.00,VWS V14.00,2013-08-20 16:52:00,
2013-08-20 11:55:00,83.3,67.0,29.92,South,174,3.0,12.0,58,0.00,,---,0.00,VWS V14.00,2013-08-20 16:55:00,
2013-08-20 11:57:00,83.3,68.0,29.92,SSW,208,0.0,9.0,60,0.00,,---,0.00,VWS V14.00,2013-08-20 16:57:00,
2013-08-20 12:00:00,83.4,67.6,29.92,SSE,147,8.0,9.0,59,0.00,,---,0.00,VWS V14.00,2013-08-20 17:00:00,
2013-08-20 12:02:00,83.6,68.3,29.91,SSE,161,1.0,10.0,60,0.00,,---,0.00,VWS V14.00,2013-08-20 17:02:00,
2013-08-20 12:05:00,83.7,68.3,29.91,South,178,1.0,10.0,60,0.00,,---,0.00,VWS V14.00,2013-08-20 17:05:00,
2013-08-20 12:07:00,83.7,66.9,29.92,SSE,159,3.0,10.0,57,0.00,,---,0.00,VWS V14.00,2013-08-20 17:07:00,
2013-08-20 12:10:00,83.6,66.8,29.91,South,169,3.0,13.0,57,0.00,,---,0.00,VWS V14.00,2013-08-20 17:10:00,
2013-08-20 12:12:00,83.5,67.2,29.91,South,173,4.0,7.0,58,0.00,,---,0.00,VWS V14.00,2013-08-20 17:12:00,
2013-08-20 12:15:00,83.4,66.6,29.91,South,169,4.0,13.0,57,0.00,,---,0.00,VWS V14.00,2013-08-20 17:15:00,
2013-08-20 12:17:00,83.5,67.7,29.91,SSE,168,0.0,9.0,59,0.00,,---,0.00,VWS V14.00,2013-08-20 17:17:00,
2013-08-20 12:20:00,83.6,66.8,29.91,SW,225,0.0,12.0,57,0.00,,---,0.00,VWS V14.00,2013-08-20 17:20:00,
2013-08-20 12:22:00,83.6,66.8,29.91,SSE,160,2.0,12.0,57,0.00,,---,0.00,VWS V14.00,2013-08-20 17:22:00,
2013-08-20 12:25:00,83.5,66.7,29.91,SW,236,1.0,12.0,57,0.00,,---,0.00,VWS V14.00,2013-08-20 17:25:00,
2013-08-20 12:27:00,83.5,67.7,29.91,South,174,1.0,8.0,59,0.00,,---,0.00,VWS V14.00,2013-08-20 17:27:00,
2013-08-20 12:30:00,83.8,68.0,29.91,SW,235,1.0,8.0,59,0.00,,---,0.00,VWS V14.00,2013-08-20 17:30:00,
2013-08-20 12:32:00,84.2,67.3,29.91,SSE,163,1.0,5.0,57,0.00,,---,0.00,VWS V14.00,2013-08-20 17:32:00,
2013-08-20 12:35:00,84.2,66.8,29.91,SW,236,3.0,10.0,56,0.00,,---,0.00,VWS V14.00,2013-08-20 17:35:00,
2013-08-20 12:37:00,83.9,67.1,29.91,SSW,209,2.0,6.0,57,0.00,,---,0.00,VWS V14.00,2013-08-20 17:37:00,
2013-08-20 12:40:00,84.0,67.7,29.91,WNW,294,2.0,6.0,58,0.00,,---,0.00,VWS V14.00,2013-08-20 17:40:00,
2013-08-20 12:42:00,84.3,66.4,29.91,WSW,253,5.0,12.0,55,0.00,,---,0.00,VWS V14.00,2013-08-20 17:42:00,
2013-08-20 12:45:00,84.2,66.8,29.91,South,188,7.0,12.0,56,0.00,,---,0.00,VWS V14.00,2013-08-20 17:45:00,
2013-08-20 12:47:00,84.1,66.7,29.90,South,173,3.0,11.0,56,0.00,,---,0.00,VWS V14.00,2013-08-20 17:47:00,
2013-08-20 12:50:00,84.2,67.3,29.90,SSE,150,3.0,11.0,57,0.00,,---,0.00,VWS V14.00,2013-08-20 17:50:00,
2013-08-20 12:52:00,84.5,66.6,29.90,SSE,165,3.0,11.0,55,0.00,,---,0.00,VWS V14.00,2013-08-20 17:52:00,
2013-08-20 12:55:00,84.6,66.1,29.90,SSE,152,12.0,12.0,54,0.00,,---,0.00,VWS V14.00,2013-08-20 17:55:00,
2013-08-20 12:57:00,84.4,65.4,29.90,SW,217,3.0,13.0,53,0.00,,---,0.00,VWS V14.00,2013-08-20 17:57:00,
2013-08-20 13:00:00,84.2,65.2,29.90,SSW,205,3.0,14.0,53,0.00,,---,0.00,VWS V14.00,2013-08-20 18:00:00,
2013-08-20 13:02:00,84.3,66.9,29.90,SSE,164,0.0,9.0,56,0.00,,---,0.00,VWS V14.00,2013-08-20 18:02:00,
2013-08-20 13:05:00,84.5,66.6,29.90,SSE,163,5.0,9.0,55,0.00,,---,0.00,VWS V14.00,2013-08-20 18:05:00,
2013-08-20 13:08:00,84.4,66.5,29.90,South,175,2.0,11.0,55,0.00,,---,0.00,VWS V14.00,2013-08-20 18:08:00,
2013-08-20 13:10:00,84.5,66.6,29.90,South,171,3.0,11.0,55,0.00,,---,0.00,VWS V14.00,2013-08-20 18:10:00,
2013-08-20 13:13:00,84.7,66.2,29.90,South,188,3.0,14.0,54,0.00,,---,0.00,VWS V14.00,2013-08-20 18:13:00,
2013-08-20 13:15:00,84.7,66.2,29.90,South,171,6.0,14.0,54,0.00,,---,0.00,VWS V14.00,2013-08-20 18:15:00,
2013-08-20 13:18:00,84.7,66.2,29.89,South,171,8.0,12.0,54,0.00,,---,0.00,VWS V14.00,2013-08-20 18:18:00,
2013-08-20 13:20:00,84.6,66.7,29.89,SSE,167,0.0,12.0,55,0.00,,---,0.00,VWS V14.00,2013-08-20 18:20:00,
2013-08-20 13:23:00,84.8,65.2,29.90,WNW,286,4.0,11.0,52,0.00,,---,0.00,VWS V14.00,2013-08-20 18:23:00,
2013-08-20 13:25:00,84.8,66.3,29.89,SSW,196,4.0,11.0,54,0.00,,---,0.00,VWS V14.00,2013-08-20 18:25:00,
2013-08-20 13:28:00,84.8,66.3,29.89,SSW,213,0.0,12.0,54,0.00,,---,0.00,VWS V14.00,2013-08-20 18:28:00,
2013-08-20 13:30:00,85.0,66.5,29.89,SSW,199,1.0,12.0,54,0.00,,---,0.00,VWS V14.00,2013-08-20 18:30:00,
2013-08-20 13:33:00,85.3,67.3,29.89,South,185,1.0,10.0,55,0.00,,---,0.00,VWS V14.00,2013-08-20 18:33:00,
2013-08-20 13:35:00,85.6,67.1,29.89,South,188,9.0,11.0,54,0.00,,---,0.00,VWS V14.00,2013-08-20 18:35:00,
2013-08-20 13:38:00,85.4,65.8,29.89,South,186,6.0,13.0,52,0.00,,---,0.00,VWS V14.00,2013-08-20 18:38:00,
2013-08-20 13:40:00,85.3,66.2,29.89,SE,138,0.0,13.0,53,0.00,,---,0.00,VWS V14.00,2013-08-20 18:40:00,
2013-08-20 13:43:00,85.1,66.1,29.89,SW,215,7.0,11.0,53,0.00,,---,0.00,VWS V14.00,2013-08-20 18:43:00,
2013-08-20 13:45:00,85.2,65.6,29.89,South,175,1.0,11.0,52,0.00,,---,0.00,VWS V14.00,2013-08-20 18:45:00,
2013-08-20 13:48:00,85.5,65.9,29.89,South,178,3.0,7.0,52,0.00,,---,0.00,VWS V14.00,2013-08-20 18:48:00,
2013-08-20 13:50:00,85.6,66.0,29.89,South,174,2.0,7.0,52,0.00,,---,0.00,VWS V14.00,2013-08-20 18:50:00,
2013-08-20 13:53:00,85.3,65.1,29.89,SSW,192,3.0,11.0,51,0.00,,---,0.00,VWS V14.00,2013-08-20 18:53:00,
2013-08-20 13:55:00,85.0,65.4,29.89,SSE,159,4.0,11.0,52,0.00,,---,0.00,VWS V14.00,2013-08-20 18:55:00,
2013-08-20 13:58:00,85.0,66.0,29.89,SW,229,6.0,9.0,53,0.00,,---,0.00,VWS V14.00,2013-08-20 18:58:00,
2013-08-20 14:00:00,85.0,65.4,29.89,SE,144,5.0,12.0,52,0.00,,---,0.00,VWS V14.00,2013-08-20 19:00:00,
2013-08-20 14:03:00,85.2,66.7,29.89,South,188,0.0,10.0,54,0.00,,---,0.00,VWS V14.00,2013-08-20 19:03:00,
2013-08-20 14:05:00,85.3,66.2,29.89,SSE,159,0.0,11.0,53,0.00,,---,0.00,VWS V14.00,2013-08-20 19:05:00,
2013-08-20 14:08:00,85.2,66.2,29.89,SSE,166,3.0,10.0,53,0.00,,---,0.00,VWS V14.00,2013-08-20 19:08:00,
2013-08-20 14:10:00,85.1,66.1,29.89,South,182,4.0,11.0,53,0.00,,---,0.00,VWS V14.00,2013-08-20 19:10:00,
2013-08-20 14:13:00,85.2,66.2,29.89,SE,132,8.0,12.0,53,0.00,,---,0.00,VWS V14.00,2013-08-20 19:13:00,
2013-08-20 14:15:00,85.4,66.3,29.89,SSE,164,1.0,12.0,53,0.00,,---,0.00,VWS V14.00,2013-08-20 19:15:00,
2013-08-20 14:18:00,85.3,65.7,29.89,SSE,163,2.0,11.0,52,0.00,,---,0.00,VWS V14.00,2013-08-20 19:18:00,
2013-08-20 14:20:00,85.3,66.8,29.89,SSE,162,3.0,11.0,54,0.00,,---,0.00,VWS V14.00,2013-08-20 19:20:00,
2013-08-20 14:23:00,85.4,66.3,29.89,SSE,157,6.0,10.0,53,0.00,,---,0.00,VWS V14.00,2013-08-20 19:23:00,
2013-08-20 14:25:00,85.4,65.8,29.89,South,183,12.0,12.0,52,0.00,,---,0.00,VWS V14.00,2013-08-20 19:25:00,
2013-08-20 14:28:00,85.6,67.1,29.88,South,175,6.0,12.0,54,0.00,,---,0.00,VWS V14.00,2013-08-20 19:28:00,
2013-08-20 14:30:00,85.7,66.6,29.88,South,169,0.0,12.0,53,0.00,,---,0.00,VWS V14.00,2013-08-20 19:30:00,
2013-08-20 14:33:00,86.0,66.3,29.88,SSE,161,3.0,10.0,52,0.00,,---,0.00,VWS V14.00,2013-08-20 19:33:00,
2013-08-20 14:35:00,86.0,65.8,29.88,SSW,198,2.0,10.0,51,0.00,,---,0.00,VWS V14.00,2013-08-20 19:35:00,
2013-08-20 14:38:00,86.0,65.2,29.88,South,186,3.0,13.0,50,0.00,,---,0.00,VWS V14.00,2013-08-20 19:38:00,
2013-08-20 14:40:00,86.0,65.8,29.88,South,182,0.0,13.0,51,0.00,,---,0.00,VWS V14.00,2013-08-20 19:40:00,
2013-08-20 14:43:00,86.1,66.4,29.88,SSE,156,9.0,11.0,52,0.00,,---,0.00,VWS V14.00,2013-08-20 19:43:00,
2013-08-20 14:45:00,86.0,65.2,29.88,SSE,154,12.0,13.0,50,0.00,,---,0.00,VWS V14.00,2013-08-20 19:45:00,
2013-08-20 14:48:00,85.6,64.8,29.88,SSW,200,5.0,13.0,50,0.00,,---,0.00,VWS V14.00,2013-08-20 19:48:00,
2013-08-20 14:50:00,85.4,65.2,29.88,SSE,166,2.0,13.0,51,0.00,,---,0.00,VWS V14.00,2013-08-20 19:50:00,
2013-08-20 14:53:00,85.4,65.8,29.88,SSE,153,2.0,10.0,52,0.00,,---,0.00,VWS V14.00,2013-08-20 19:53:00,
2013-08-20 14:55:00,85.4,66.9,29.88,SSE,165,5.0,10.0,54,0.00,,---,0.00,VWS V14.00,2013-08-20 19:55:00,
2013-08-20 14:58:00,85.6,64.8,29.88,SW,225,3.0,10.0,50,0.00,,---,0.00,VWS V14.00,2013-08-20 19:58:00,
2013-08-20 15:00:00,85.6,64.8,29.88,WSW,247,6.0,10.0,50,0.00,,---,0.00,VWS V14.00,2013-08-20 20:00:00,
2013-08-20 15:03:00,85.3,64.6,29.88,South,188,2.0,13.0,50,0.00,,---,0.00,VWS V14.00,2013-08-20 20:03:00,
2013-08-20 15:05:00,85.3,65.1,29.88,SSE,160,1.0,13.0,51,0.00,,---,0.00,VWS V14.00,2013-08-20 20:05:00,
2013-08-20 15:08:00,85.6,66.0,29.87,SSE,159,4.0,12.0,52,0.00,,---,0.00,VWS V14.00,2013-08-20 20:08:00,
2013-08-20 15:10:00,85.6,67.1,29.87,SSW,196,4.0,12.0,54,0.00,,---,0.00,VWS V14.00,2013-08-20 20:10:00,
2013-08-20 15:13:00,85.8,66.7,29.88,SE,145,1.0,9.0,53,0.00,,---,0.00,VWS V14.00,2013-08-20 20:13:00,
2013-08-20 15:15:00,85.9,66.2,29.87,South,171,0.0,9.0,52,0.00,,---,0.00,VWS V14.00,2013-08-20 20:15:00,
2013-08-20 15:18:00,85.9,65.7,29.87,SSW,202,3.0,11.0,51,0.00,,---,0.00,VWS V14.00,2013-08-20 20:18:00,
2013-08-20 15:20:00,85.9,65.7,29.87,SSW,194,2.0,11.0,51,0.00,,---,0.00,VWS V14.00,2013-08-20 20:20:00,
2013-08-20 15:23:00,86.1,66.4,29.87,South,169,0.0,6.0,52,0.00,,---,0.00,VWS V14.00,2013-08-20 20:23:00,
2013-08-20 15:25:00,86.2,67.6,29.87,SE,136,5.0,9.0,54,0.00,,---,0.00,VWS V14.00,2013-08-20 20:25:00,
2013-08-20 15:28:00,86.1,65.3,29.87,SSE,165,5.0,10.0,50,0.00,,---,0.00,VWS V14.00,2013-08-20 20:28:00,
2013-08-20 15:30:00,86.0,64.6,29.87,SSE,150,3.0,10.0,49,0.00,,---,0.00,VWS V14.00,2013-08-20 20:30:00,
2013-08-20 15:33:00,85.7,65.5,29.87,SSE,150,4.0,8.0,51,0.00,,---,0.00,VWS V14.00,2013-08-20 20:33:00,
2013-08-20 15:35:00,85.7,65.5,29.87,SSE,162,10.0,10.0,51,0.00,,---,0.00,VWS V14.00,2013-08-20 20:35:00,
2013-08-20 15:38:00,85.6,65.4,29.87,South,173,0.0,11.0,51,0.00,,---,0.00,VWS V14.00,2013-08-20 20:38:00,
2013-08-20 15:40:00,85.7,66.1,29.87,SW,218,7.0,11.0,52,0.00,,---,0.00,VWS V14.00,2013-08-20 20:40:00,
2013-08-20 15:43:00,85.2,64.5,29.87,SSE,163,5.0,8.0,50,0.00,,---,0.00,VWS V14.00,2013-08-20 20:43:00,
2013-08-20 15:45:00,85.2,64.5,29.87,SSE,164,5.0,10.0,50,0.00,,---,0.00,VWS V14.00,2013-08-20 20:45:00,
2013-08-20 15:48:00,85.0,64.9,29.87,South,181,6.0,7.0,51,0.00,,---,0.00,VWS V14.00,2013-08-20 20:48:00,
2013-08-20 15:50:00,85.1,65.5,29.87,SSE,161,2.0,7.0,52,0.00,,---,0.00,VWS V14.00,2013-08-20 20:50:00,
2013-08-20 15:53:00,85.3,65.7,29.87,SSE,155,3.0,10.0,52,0.00,,---,0.00,VWS V14.00,2013-08-20 20:53:00,
2013-08-20 15:55:00,85.3,65.7,29.87,SSE,167,2.0,10.0,52,0.00,,---,0.00,VWS V14.00,2013-08-20 20:55:00,
2013-08-20 15:58:00,85.3,65.1,29.87,SSE,157,1.0,11.0,51,0.00,,---,0.00,VWS V14.00,2013-08-20 20:58:00,
2013-08-20 16:00:00,85.3,65.1,29.87,SSE,157,2.0,11.0,51,0.00,,---,0.00,VWS V14.00,2013-08-20 21:00:00,
2013-08-20 16:03:00,85.2,65.1,29.86,SSE,157,5.0,11.0,51,0.00,,---,0.00,VWS V14.00,2013-08-20 21:03:00,
2013-08-20 16:05:00,85.1,65.5,29.86,SSE,164,4.0,11.0,52,0.00,,---,0.00,VWS V14.00,2013-08-20 21:05:00,
2013-08-20 16:08:00,85.1,65.5,29.87,South,169,3.0,9.0,52,0.00,,---,0.00,VWS V14.00,2013-08-20 21:08:00,
2013-08-20 16:10:00,85.1,65.5,29.87,SW,221,4.0,9.0,52,0.00,,---,0.00,VWS V14.00,2013-08-20 21:10:00,
2013-08-20 16:13:00,84.9,65.3,29.86,SE,136,2.0,9.0,52,0.00,,---,0.00,VWS V14.00,2013-08-20 21:13:00,
2013-08-20 16:15:00,84.8,65.2,29.86,SSE,166,4.0,9.0,52,0.00,,---,0.00,VWS V14.00,2013-08-20 21:15:00,
2013-08-20 16:18:00,84.9,66.4,29.86,SSE,167,5.0,9.0,54,0.00,,---,0.00,VWS V14.00,2013-08-20 21:18:00,
2013-08-20 16:20:00,85.0,66.5,29.86,SSW,207,4.0,9.0,54,0.00,,---,0.00,VWS V14.00,2013-08-20 21:20:00,
2013-08-20 16:23:00,85.3,66.2,29.86,South,183,0.0,7.0,53,0.00,,---,0.00,VWS V14.00,2013-08-20 21:23:00,
2013-08-20 16:25:00,85.3,66.2,29.86,South,173,1.0,7.0,53,0.00,,---,0.00,VWS V14.00,2013-08-20 21:25:00,
2013-08-20 16:29:00,85.2,66.2,29.86,SSE,167,6.0,12.0,53,0.00,,---,0.00,VWS V14.00,2013-08-20 21:29:00,
2013-08-20 16:30:00,85.1,65.5,29.86,SSE,157,2.0,12.0,52,0.00,,---,0.00,VWS V14.00,2013-08-20 21:30:00,
2013-08-20 16:33:00,84.7,65.7,29.86,SSE,168,9.0,10.0,53,0.00,,---,0.00,VWS V14.00,2013-08-20 21:33:00,
2013-08-20 16:35:00,84.7,66.2,29.86,South,185,5.0,10.0,54,0.00,,---,0.00,VWS V14.00,2013-08-20 21:35:00,
2013-08-20 16:39:00,84.4,65.9,29.86,SSW,198,5.0,12.0,54,0.00,,---,0.00,VWS V14.00,2013-08-20 21:39:00,
2013-08-20 16:40:00,84.4,65.9,29.86,SW,214,9.0,12.0,54,0.00,,---,0.00,VWS V14.00,2013-08-20 21:40:00,
2013-08-20 16:44:00,84.3,65.9,29.86,WSW,241,4.0,9.0,54,0.00,,---,0.00,VWS V14.00,2013-08-20 21:44:00,
2013-08-20 16:45:00,84.3,65.9,29.86,SSW,198,0.0,9.0,54,0.00,,---,0.00,VWS V14.00,2013-08-20 21:45:00,
2013-08-20 16:49:00,84.5,66.1,29.86,SE,131,5.0,10.0,54,0.00,,---,0.00,VWS V14.00,2013-08-20 21:49:00,
2013-08-20 16:50:00,84.6,66.1,29.86,South,171,4.0,10.0,54,0.00,,---,0.00,VWS V14.00,2013-08-20 21:50:00,
2013-08-20 16:54:00,84.2,65.8,29.86,South,171,0.0,10.0,54,0.00,,---,0.00,VWS V14.00,2013-08-20 21:54:00,
2013-08-20 16:55:00,84.2,65.8,29.86,South,182,1.0,10.0,54,0.00,,---,0.00,VWS V14.00,2013-08-20 21:55:00,
2013-08-20 16:59:00,84.2,65.8,29.86,South,174,4.0,11.0,54,0.00,,---,0.00,VWS V14.00,2013-08-20 21:59:00,
2013-08-20 17:00:00,84.2,65.8,29.86,South,174,0.0,11.0,54,0.00,,---,0.00,VWS V14.00,2013-08-20 22:00:00,
2013-08-20 17:04:00,84.2,66.3,29.86,SSE,157,5.0,11.0,55,0.00,,---,0.00,VWS V14.00,2013-08-20 22:04:00,
2013-08-20 17:05:00,84.2,66.3,29.86,SSE,151,11.0,12.0,55,0.00,,---,0.00,VWS V14.00,2013-08-20 22:05:00,
2013-08-20 17:09:00,84.3,66.9,29.86,SSW,205,3.0,11.0,56,0.00,,---,0.00,VWS V14.00,2013-08-20 22:09:00,
2013-08-20 17:10:00,84.3,66.9,29.86,SSE,165,4.0,11.0,56,0.00,,---,0.00,VWS V14.00,2013-08-20 22:10:00,
2013-08-20 17:14:00,84.4,67.0,29.86,SSW,203,7.0,7.0,56,0.00,,---,0.00,VWS V14.00,2013-08-20 22:14:00,
2013-08-20 17:15:00,84.4,67.0,29.86,SW,222,3.0,7.0,56,0.00,,---,0.00,VWS V14.00,2013-08-20 22:15:00,
2013-08-20 17:19:00,84.2,66.3,29.86,SSW,198,0.0,9.0,55,0.00,,---,0.00,VWS V14.00,2013-08-20 22:19:00,
2013-08-20 17:20:00,84.2,66.3,29.86,SSW,198,0.0,9.0,55,0.00,,---,0.00,VWS V14.00,2013-08-20 22:20:00,
2013-08-20 17:24:00,84.1,66.7,29.86,SSE,161,0.0,7.0,56,0.00,,---,0.00,VWS V14.00,2013-08-20 22:24:00,
2013-08-20 17:25:00,84.1,66.7,29.86,SSE,161,0.0,7.0,56,0.00,,---,0.00,VWS V14.00,2013-08-20 22:25:00,
2013-08-20 17:29:00,83.9,66.0,29.86,SSE,156,0.0,9.0,55,0.00,,---,0.00,VWS V14.00,2013-08-20 22:29:00,
2013-08-20 17:30:00,83.9,66.0,29.86,SSE,156,0.0,9.0,55,0.00,,---,0.00,VWS V14.00,2013-08-20 22:30:00,
2013-08-20 17:34:00,83.4,66.1,29.86,SW,215,1.0,6.0,56,0.00,,---,0.00,VWS V14.00,2013-08-20 22:34:00,
2013-08-20 17:35:00,83.4,66.1,29.86,SW,215,1.0,6.0,56,0.00,,---,0.00,VWS V14.00,2013-08-20 22:35:00,
2013-08-20 17:39:00,83.3,67.0,29.86,SSE,167,2.0,5.0,58,0.00,,---,0.00,VWS V14.00,2013-08-20 22:39:00,
2013-08-20 17:40:00,83.3,67.0,29.86,SSE,153,4.0,5.0,58,0.00,,---,0.00,VWS V14.00,2013-08-20 22:40:00,
2013-08-20 17:44:00,83.4,67.1,29.86,SE,146,4.0,4.0,58,0.00,,---,0.00,VWS V14.00,2013-08-20 22:44:00,
2013-08-20 17:45:00,83.4,67.1,29.86,SE,146,4.0,4.0,58,0.00,,---,0.00,VWS V14.00,2013-08-20 22:45:00,
2013-08-20 17:49:00,83.3,67.0,29.86,South,173,2.0,7.0,58,0.00,,---,0.00,VWS V14.00,2013-08-20 22:49:00,
2013-08-20 17:50:00,83.3,67.0,29.86,South,173,2.0,7.0,58,0.00,,---,0.00,VWS V14.00,2013-08-20 22:50:00,
2013-08-20 17:54:00,83.2,66.9,29.86,South,178,2.0,5.0,58,0.00,,---,0.00,VWS V14.00,2013-08-20 22:54:00,
2013-08-20 17:55:00,83.2,66.9,29.86,South,178,2.0,5.0,58,0.00,,---,0.00,VWS V14.00,2013-08-20 22:55:00,
2013-08-20 17:59:00,83.1,66.3,29.86,SSE,165,3.0,10.0,57,0.00,,---,0.00,VWS V14.00,2013-08-20 22:59:00,
2013-08-20 18:00:00,83.1,66.3,29.86,SSE,163,2.0,10.0,57,0.00,,---,0.00,VWS V14.00,2013-08-20 23:00:00,
2013-08-20 18:04:00,82.8,66.0,29.85,SSE,163,5.0,10.0,57,0.00,,---,0.00,VWS V14.00,2013-08-20 23:04:00,
2013-08-20 18:05:00,82.8,66.0,29.85,SSE,163,5.0,10.0,57,0.00,,---,0.00,VWS V14.00,2013-08-20 23:05:00,
2013-08-20 18:09:00,82.5,66.2,29.85,SSE,159,4.0,7.0,58,0.00,,---,0.00,VWS V14.00,2013-08-20 23:09:00,
2013-08-20 18:10:00,82.5,66.2,29.85,SSE,159,4.0,7.0,58,0.00,,---,0.00,VWS V14.00,2013-08-20 23:10:00,
2013-08-20 18:14:00,82.4,66.7,29.85,South,171,2.0,6.0,59,0.00,,---,0.00,VWS V14.00,2013-08-20 23:14:00,
2013-08-20 18:15:00,82.4,66.7,29.85,South,171,2.0,6.0,59,0.00,,---,0.00,VWS V14.00,2013-08-20 23:15:00,
2013-08-20 18:19:00,82.2,66.0,29.85,South,176,5.0,7.0,58,0.00,,---,0.00,VWS V14.00,2013-08-20 23:19:00,
2013-08-20 18:20:00,82.2,66.0,29.85,South,176,5.0,7.0,58,0.00,,---,0.00,VWS V14.00,2013-08-20 23:20:00,
2013-08-20 18:24:00,82.0,66.8,29.85,SSE,163,0.0,6.0,60,0.00,,---,0.00,VWS V14.00,2013-08-20 23:24:00,
2013-08-20 18:25:00,82.0,66.8,29.85,SSE,163,0.0,6.0,60,0.00,,---,0.00,VWS V14.00,2013-08-20 23:25:00,
2013-08-20 18:29:00,81.9,66.7,29.85,South,179,0.0,9.0,60,0.00,,---,0.00,VWS V14.00,2013-08-20 23:29:00,
2013-08-20 18:30:00,81.9,66.7,29.85,South,179,0.0,9.0,60,0.00,,---,0.00,VWS V14.00,2013-08-20 23:30:00,
2013-08-20 18:34:00,81.7,66.9,29.85,SSW,213,1.0,3.0,61,0.00,,---,0.00,VWS V14.00,2013-08-20 23:34:00,
2013-08-20 18:35:00,81.7,66.9,29.85,SSW,213,1.0,3.0,61,0.00,,---,0.00,VWS V14.00,2013-08-20 23:35:00,
2013-08-20 18:39:00,81.4,67.1,29.85,SSW,205,4.0,4.0,62,0.00,,---,0.00,VWS V14.00,2013-08-20 23:39:00,
2013-08-20 18:40:00,81.4,67.1,29.85,SSW,205,4.0,4.0,62,0.00,,---,0.00,VWS V14.00,2013-08-20 23:40:00,
2013-08-20 18:44:00,81.2,67.4,29.85,SSE,165,0.0,5.0,63,0.00,,---,0.00,VWS V14.00,2013-08-20 23:44:00,
2013-08-20 18:45:00,81.2,67.4,29.85,SSE,165,0.0,5.0,63,0.00,,---,0.00,VWS V14.00,2013-08-20 23:45:00,
2013-08-20 18:49:00,81.0,67.2,29.85,South,171,0.0,5.0,63,0.00,,---,0.00,VWS V14.00,2013-08-20 23:49:00,
2013-08-20 18:50:00,81.0,67.2,29.85,South,171,0.0,5.0,63,0.00,,---,0.00,VWS V14.00,2013-08-20 23:50:00,
2013-08-20 18:54:00,80.8,67.0,29.85,South,180,0.0,7.0,63,0.00,,---,0.00,VWS V14.00,2013-08-20 23:54:00,
2013-08-20 18:55:00,80.8,67.0,29.85,South,180,0.0,7.0,63,0.00,,---,0.00,VWS V14.00,2013-08-20 23:55:00,
2013-08-20 18:59:00,80.6,66.8,29.85,South,190,0.0,5.0,63,0.00,,---,0.00,VWS V14.00,2013-08-20 23:59:00,
2013-08-20 19:00:00,80.6,66.8,29.85,South,190,0.0,5.0,63,0.00,,---,0.00,VWS V14.00,2013-08-21 00:00:00,
2013-08-20 19:04:00,80.5,67.2,29.85,SSE,161,0.0,4.0,64,0.00,,---,0.00,VWS V14.00,2013-08-21 00:04:00,
2013-08-20 19:05:00,80.5,67.2,29.85,SSE,161,0.0,4.0,64,0.00,,---,0.00,VWS V14.00,2013-08-21 00:05:00,
2013-08-20 19:09:00,80.3,67.0,29.85,SSE,161,1.0,1.0,64,0.00,,---,0.00,VWS V14.00,2013-08-21 00:09:00,
2013-08-20 19:10:00,80.3,67.0,29.85,SSE,161,1.0,1.0,64,0.00,,---,0.00,VWS V14.00,2013-08-21 00:10:00,
2013-08-20 19:14:00,80.0,66.7,29.85,SSE,167,0.0,5.0,64,0.00,,---,0.00,VWS V14.00,2013-08-21 00:14:00,
2013-08-20 19:15:00,80.0,66.7,29.85,SSE,167,0.0,5.0,64,0.00,,---,0.00,VWS V14.00,2013-08-21 00:15:00,
2013-08-20 19:19:00,79.8,67.0,29.85,SSW,193,0.0,5.0,65,0.00,,---,0.00,VWS V14.00,2013-08-21 00:19:00,
2013-08-20 19:20:00,79.8,67.0,29.85,SSW,193,0.0,5.0,65,0.00,,---,0.00,VWS V14.00,2013-08-21 00:20:00,
2013-08-20 19:24:00,79.5,66.7,29.85,South,171,4.0,4.0,65,0.00,,---,0.00,VWS V14.00,2013-08-21 00:24:00,
2013-08-20 19:25:00,79.5,66.7,29.85,South,171,4.0,4.0,65,0.00,,---,0.00,VWS V14.00,2013-08-21 00:25:00,
2013-08-20 19:29:00,79.4,66.6,29.85,South,171,0.0,4.0,65,0.00,,---,0.00,VWS V14.00,2013-08-21 00:29:00,
2013-08-20 19:30:00,79.4,66.6,29.85,South,171,0.0,4.0,65,0.00,,---,0.00,VWS V14.00,2013-08-21 00:30:00,
2013-08-20 19:34:00,79.1,66.8,29.85,South,171,0.0,1.0,66,0.00,,---,0.00,VWS V14.00,2013-08-21 00:34:00,
2013-08-20 19:35:00,79.1,66.8,29.85,South,171,0.0,1.0,66,0.00,,---,0.00,VWS V14.00,2013-08-21 00:35:00,
2013-08-20 19:39:00,78.9,66.6,29.86,South,171,0.0,1.0,66,0.00,,---,0.00,VWS V14.00,2013-08-21 00:39:00,
2013-08-20 19:40:00,78.9,66.6,29.86,South,171,0.0,1.0,66,0.00,,---,0.00,VWS V14.00,2013-08-21 00:40:00,
2013-08-20 19:44:00,78.6,66.7,29.86,South,171,0.0,1.0,67,0.00,,---,0.00,VWS V14.00,2013-08-21 00:44:00,
2013-08-20 19:45:00,78.6,66.7,29.86,South,171,0.0,1.0,67,0.00,,---,0.00,VWS V14.00,2013-08-21 00:45:00,
2013-08-20 19:49:00,78.3,66.4,29.86,South,171,0.0,2.0,67,0.00,,---,0.00,VWS V14.00,2013-08-21 00:49:00,
2013-08-20 19:50:00,78.3,66.4,29.86,South,171,0.0,2.0,67,0.00,,---,0.00,VWS V14.00,2013-08-21 00:50:00,
2013-08-20 19:54:00,78.1,66.3,29.86,South,171,0.0,2.0,67,0.00,,---,0.00,VWS V14.00,2013-08-21 00:54:00,
2013-08-20 19:55:00,78.1,66.3,29.86,South,171,0.0,2.0,67,0.00,,---,0.00,VWS V14.00,2013-08-21 00:55:00,
2013-08-20 19:59:00,77.7,66.3,29.86,South,171,0.0,1.0,68,0.00,,---,0.00,VWS V14.00,2013-08-21 00:59:00,
2013-08-20 20:00:00,77.7,66.3,29.86,South,171,0.0,1.0,68,0.00,,---,0.00,VWS V14.00,2013-08-21 01:00:00,
2013-08-20 20:04:00,77.2,66.7,29.86,South,171,0.0,1.0,70,0.00,,---,0.00,VWS V14.00,2013-08-21 01:04:00,
2013-08-20 20:05:00,77.2,66.7,29.86,South,171,0.0,1.0,70,0.00,,---,0.00,VWS V14.00,2013-08-21 01:05:00,
2013-08-20 20:09:00,76.7,66.6,29.86,South,171,0.0,1.0,71,0.00,,---,0.00,VWS V14.00,2013-08-21 01:09:00,
2013-08-20 20:10:00,76.7,66.6,29.86,South,171,0.0,1.0,71,0.00,,---,0.00,VWS V14.00,2013-08-21 01:10:00,
2013-08-20 20:14:00,76.2,66.1,29.86,South,171,0.0,1.0,71,0.00,,---,0.00,VWS V14.00,2013-08-21 01:14:00,
2013-08-20 20:15:00,76.2,66.1,29.86,South,171,0.0,1.0,71,0.00,,---,0.00,VWS V14.00,2013-08-21 01:15:00,
2013-08-20 20:19:00,75.8,66.1,29.86,South,171,0.0,1.0,72,0.00,,---,0.00,VWS V14.00,2013-08-21 01:19:00,
2013-08-20 20:20:00,75.8,66.1,29.86,South,171,0.0,1.0,72,0.00,,---,0.00,VWS V14.00,2013-08-21 01:20:00,
2013-08-20 20:24:00,75.3,66.1,29.86,South,171,0.0,1.0,73,0.00,,---,0.00,VWS V14.00,2013-08-21 01:24:00,
2013-08-20 20:25:00,75.3,66.1,29.86,South,171,0.0,1.0,73,0.00,,---,0.00,VWS V14.00,2013-08-21 01:25:00,
2013-08-20 20:29:00,74.9,66.1,29.86,South,171,0.0,0.0,74,0.00,,---,0.00,VWS V14.00,2013-08-21 01:29:00,
2013-08-20 20:30:00,74.9,66.1,29.86,South,171,0.0,1.0,74,0.00,,---,0.00,VWS V14.00,2013-08-21 01:30:00,
2013-08-20 20:34:00,74.4,66.0,29.86,South,171,0.0,1.0,75,0.00,,---,0.00,VWS V14.00,2013-08-21 01:34:00,
2013-08-20 20:35:00,74.4,66.0,29.86,South,171,0.0,1.0,75,0.00,,---,0.00,VWS V14.00,2013-08-21 01:35:00,
2013-08-20 20:39:00,74.2,66.2,29.87,South,171,0.0,0.0,76,0.00,,---,0.00,VWS V14.00,2013-08-21 01:39:00,
2013-08-20 20:40:00,74.2,66.2,29.87,South,171,0.0,0.0,76,0.00,,---,0.00,VWS V14.00,2013-08-21 01:40:00,
2013-08-20 20:44:00,73.9,66.2,29.87,South,171,0.0,1.0,77,0.00,,---,0.00,VWS V14.00,2013-08-21 01:44:00,
2013-08-20 20:45:00,73.9,66.2,29.87,South,171,0.0,1.0,77,0.00,,---,0.00,VWS V14.00,2013-08-21 01:45:00,
2013-08-20 20:49:00,73.6,65.9,29.87,South,171,0.0,0.0,77,0.00,,---,0.00,VWS V14.00,2013-08-21 01:49:00,
2013-08-20 20:50:00,73.6,65.9,29.87,South,171,0.0,0.0,77,0.00,,---,0.00,VWS V14.00,2013-08-21 01:50:00,
2013-08-20 20:54:00,73.4,66.1,29.87,South,171,0.0,0.0,78,0.00,,---,0.00,VWS V14.00,2013-08-21 01:54:00,
2013-08-20 20:55:00,73.4,66.1,29.87,South,171,0.0,0.0,78,0.00,,---,0.00,VWS V14.00,2013-08-21 01:55:00,
2013-08-20 20:59:00,73.2,65.9,29.87,South,171,0.0,1.0,78,0.00,,---,0.00,VWS V14.00,2013-08-21 01:59:00,
2013-08-20 21:00:00,73.2,65.9,29.87,South,171,0.0,1.0,78,0.00,,---,0.00,VWS V14.00,2013-08-21 02:00:00,
2013-08-20 21:04:00,73.0,66.1,29.87,South,171,0.0,1.0,79,0.00,,---,0.00,VWS V14.00,2013-08-21 02:04:00,
2013-08-20 21:05:00,73.0,66.1,29.87,South,171,0.0,1.0,79,0.00,,---,0.00,VWS V14.00,2013-08-21 02:05:00,
2013-08-20 21:09:00,72.8,65.9,29.87,South,171,0.0,1.0,79,0.00,,---,0.00,VWS V14.00,2013-08-21 02:09:00,
2013-08-20 21:10:00,72.8,65.9,29.87,South,171,0.0,1.0,79,0.00,,---,0.00,VWS V14.00,2013-08-21 02:10:00,
2013-08-20 21:14:00,72.6,65.7,29.87,South,171,0.0,1.0,79,0.00,,---,0.00,VWS V14.00,2013-08-21 02:14:00,
2013-08-20 21:15:00,72.6,65.7,29.87,South,171,0.0,1.0,79,0.00,,---,0.00,VWS V14.00,2013-08-21 02:15:00,
2013-08-20 21:19:00,72.5,66.0,29.87,South,171,0.0,1.0,80,0.00,,---,0.00,VWS V14.00,2013-08-21 02:19:00,
2013-08-20 21:20:00,72.5,66.0,29.87,South,171,0.0,1.0,80,0.00,,---,0.00,VWS V14.00,2013-08-21 02:20:00,
2013-08-20 21:24:00,72.5,65.6,29.87,South,171,0.0,1.0,79,0.00,,---,0.00,VWS V14.00,2013-08-21 02:24:00,
2013-08-20 21:25:00,72.5,65.6,29.87,South,171,0.0,1.0,79,0.00,,---,0.00,VWS V14.00,2013-08-21 02:25:00,
2013-08-20 21:29:00,72.4,65.9,29.87,South,171,0.0,1.0,80,0.00,,---,0.00,VWS V14.00,2013-08-21 02:29:00,
2013-08-20 21:30:00,72.4,65.9,29.87,South,171,0.0,1.0,80,0.00,,---,0.00,VWS V14.00,2013-08-21 02:30:00,
2013-08-20 21:34:00,72.3,65.8,29.87,South,171,0.0,1.0,80,0.00,,---,0.00,VWS V14.00,2013-08-21 02:34:00,
2013-08-20 21:35:00,72.3,65.8,29.87,South,171,0.0,1.0,80,0.00,,---,0.00,VWS V14.00,2013-08-21 02:35:00,
2013-08-20 21:39:00,72.2,65.7,29.88,South,171,0.0,0.0,80,0.00,,---,0.00,VWS V14.00,2013-08-21 02:39:00,
2013-08-20 21:40:00,72.2,65.7,29.88,South,171,0.0,0.0,80,0.00,,---,0.00,VWS V14.00,2013-08-21 02:40:00,
2013-08-20 21:44:00,72.2,65.7,29.87,South,171,0.0,1.0,80,0.00,,---,0.00,VWS V14.00,2013-08-21 02:44:00,
2013-08-20 21:45:00,72.2,65.7,29.87,South,171,0.0,1.0,80,0.00,,---,0.00,VWS V14.00,2013-08-21 02:45:00,
2013-08-20 21:49:00,72.2,65.7,29.87,South,171,0.0,1.0,80,0.00,,---,0.00,VWS V14.00,2013-08-21 02:49:00,
2013-08-20 21:50:00,72.2,65.7,29.87,South,171,0.0,1.0,80,0.00,,---,0.00,VWS V14.00,2013-08-21 02:50:00,
2013-08-20 21:54:00,72.2,65.7,29.87,South,171,0.0,1.0,80,0.00,,---,0.00,VWS V14.00,2013-08-21 02:54:00,
2013-08-20 21:55:00,72.2,65.7,29.87,South,171,0.0,1.0,80,0.00,,---,0.00,VWS V14.00,2013-08-21 02:55:00,
2013-08-20 21:59:00,72.1,65.6,29.87,South,171,0.0,1.0,80,0.00,,---,0.00,VWS V14.00,2013-08-21 02:59:00,
2013-08-20 22:00:00,72.1,65.6,29.87,South,171,0.0,1.0,80,0.00,,---,0.00,VWS V14.00,2013-08-21 03:00:00,
2013-08-20 22:04:00,71.9,65.4,29.87,South,171,0.0,1.0,80,0.00,,---,0.00,VWS V14.00,2013-08-21 03:04:00,
2013-08-20 22:05:00,71.9,65.4,29.87,South,171,0.0,1.0,80,0.00,,---,0.00,VWS V14.00,2013-08-21 03:05:00,
2013-08-20 22:09:00,71.7,65.2,29.87,South,171,0.0,1.0,80,0.00,,---,0.00,VWS V14.00,2013-08-21 03:09:00,
2013-08-20 22:10:00,71.7,65.2,29.87,South,171,0.0,1.0,80,0.00,,---,0.00,VWS V14.00,2013-08-21 03:10:00,
2013-08-20 22:14:00,71.5,65.4,29.87,South,171,0.0,1.0,81,0.00,,---,0.00,VWS V14.00,2013-08-21 03:14:00,
2013-08-20 22:15:00,71.5,65.4,29.87,South,171,0.0,1.0,81,0.00,,---,0.00,VWS V14.00,2013-08-21 03:15:00,
2013-08-20 22:19:00,71.4,65.3,29.87,South,171,0.0,0.0,81,0.00,,---,0.00,VWS V14.00,2013-08-21 03:19:00,
2013-08-20 22:20:00,71.4,65.3,29.87,South,171,0.0,0.0,81,0.00,,---,0.00,VWS V14.00,2013-08-21 03:20:00,
2013-08-20 22:24:00,71.3,65.2,29.87,South,171,0.0,1.0,81,0.00,,---,0.00,VWS V14.00,2013-08-21 03:24:00,
2013-08-20 22:25:00,71.3,65.2,29.87,South,171,0.0,1.0,81,0.00,,---,0.00,VWS V14.00,2013-08-21 03:25:00,
2013-08-20 22:29:00,71.3,65.2,29.87,South,171,0.0,1.0,81,0.00,,---,0.00,VWS V14.00,2013-08-21 03:29:00,
2013-08-20 22:30:00,71.3,65.2,29.87,South,171,0.0,1.0,81,0.00,,---,0.00,VWS V14.00,2013-08-21 03:30:00,
2013-08-20 22:34:00,71.2,65.1,29.87,South,171,0.0,1.0,81,0.00,,---,0.00,VWS V14.00,2013-08-21 03:34:00,
2013-08-20 22:35:00,71.2,65.1,29.87,South,171,0.0,1.0,81,0.00,,---,0.00,VWS V14.00,2013-08-21 03:35:00,
2013-08-20 22:39:00,71.1,65.0,29.87,South,171,0.0,0.0,81,0.00,,---,0.00,VWS V14.00,2013-08-21 03:39:00,
2013-08-20 22:40:00,71.1,65.0,29.87,South,171,0.0,0.0,81,0.00,,---,0.00,VWS V14.00,2013-08-21 03:40:00,
2013-08-20 22:44:00,70.9,64.8,29.87,South,171,0.0,2.0,81,0.00,,---,0.00,VWS V14.00,2013-08-21 03:44:00,
2013-08-20 22:45:00,70.9,64.8,29.87,South,171,0.0,2.0,81,0.00,,---,0.00,VWS V14.00,2013-08-21 03:45:00,
2013-08-20 22:49:00,70.8,65.0,29.87,South,171,0.0,0.0,82,0.00,,---,0.00,VWS V14.00,2013-08-21 03:49:00,
2013-08-20 22:50:00,70.8,65.0,29.87,South,171,0.0,0.0,82,0.00,,---,0.00,VWS V14.00,2013-08-21 03:50:00,
2013-08-20 22:54:00,70.6,64.8,29.87,South,171,0.0,0.0,82,0.00,,---,0.00,VWS V14.00,2013-08-21 03:54:00,
2013-08-20 22:55:00,70.6,64.8,29.87,South,171,0.0,0.0,82,0.00,,---,0.00,VWS V14.00,2013-08-21 03:55:00,
2013-08-20 22:59:00,70.5,65.1,29.87,South,171,0.0,1.0,83,0.00,,---,0.00,VWS V14.00,2013-08-21 03:59:00,
2013-08-20 23:00:00,70.5,65.1,29.87,South,171,0.0,1.0,83,0.00,,---,0.00,VWS V14.00,2013-08-21 04:00:00,
2013-08-20 23:01:00,70.5,65.1,29.87,South,171,0.0,0.0,83,0.00,,---,0.00,VWS V14.00,2013-08-21 04:01:00,
2013-08-20 23:05:00,70.4,65.0,29.87,South,171,0.0,1.0,83,0.00,,---,0.00,VWS V14.00,2013-08-21 04:05:00,
2013-08-20 23:06:00,70.4,65.0,29.87,South,171,0.0,1.0,83,0.00,,---,0.00,VWS V14.00,2013-08-21 04:06:00,
2013-08-20 23:10:00,70.3,64.9,29.87,South,171,0.0,1.0,83,0.00,,---,0.00,VWS V14.00,2013-08-21 04:10:00,
2013-08-20 23:11:00,70.3,64.9,29.87,South,171,0.0,0.0,83,0.00,,---,0.00,VWS V14.00,2013-08-21 04:11:00,
2013-08-20 23:15:00,70.3,64.9,29.87,South,171,0.0,1.0,83,0.00,,---,0.00,VWS V14.00,2013-08-21 04:15:00,
2013-08-20 23:16:00,70.4,65.3,29.87,South,171,0.0,0.0,84,0.00,,---,0.00,VWS V14.00,2013-08-21 04:16:00,
2013-08-20 23:20:00,70.4,65.3,29.87,South,171,0.0,1.0,84,0.00,,---,0.00,VWS V14.00,2013-08-21 04:20:00,
2013-08-20 23:21:00,70.4,65.3,29.87,South,171,0.0,0.0,84,0.00,,---,0.00,VWS V14.00,2013-08-21 04:21:00,
2013-08-20 23:25:00,70.4,65.3,29.87,South,171,0.0,0.0,84,0.00,,---,0.00,VWS V14.00,2013-08-21 04:25:00,
2013-08-20 23:26:00,70.4,65.3,29.87,South,171,0.0,1.0,84,0.00,,---,0.00,VWS V14.00,2013-08-21 04:26:00,
2013-08-20 23:30:00,70.4,65.3,29.87,South,171,0.0,1.0,84,0.00,,---,0.00,VWS V14.00,2013-08-21 04:30:00,
2013-08-20 23:31:00,70.4,65.3,29.87,South,171,0.0,1.0,84,0.00,,---,0.00,VWS V14.00,2013-08-21 04:31:00,
2013-08-20 23:35:00,70.4,65.3,29.87,South,171,0.0,1.0,84,0.00,,---,0.00,VWS V14.00,2013-08-21 04:35:00,
2013-08-20 23:36:00,70.4,65.3,29.87,South,171,0.0,1.0,84,0.00,,---,0.00,VWS V14.00,2013-08-21 04:36:00,
2013-08-20 23:40:00,70.3,65.2,29.87,South,171,0.0,1.0,84,0.00,,---,0.00,VWS V14.00,2013-08-21 04:40:00,
2013-08-20 23:42:00,70.4,65.3,29.87,South,171,0.0,1.0,84,0.00,,---,0.00,VWS V14.00,2013-08-21 04:42:00,
2013-08-20 23:45:00,70.4,65.3,29.87,South,171,0.0,1.0,84,0.00,,---,0.00,VWS V14.00,2013-08-21 04:45:00,
2013-08-20 23:47:00,70.4,65.3,29.87,South,171,0.0,1.0,84,0.00,,---,0.00,VWS V14.00,2013-08-21 04:47:00,
2013-08-20 23:50:00,70.4,65.3,29.87,South,171,0.0,1.0,84,0.00,,---,0.00,VWS V14.00,2013-08-21 04:50:00,
2013-08-20 23:52:00,70.4,65.3,29.87,South,171,0.0,1.0,84,0.00,,---,0.00,VWS V14.00,2013-08-21 04:52:00,
2013-08-20 23:55:00,70.4,65.7,29.87,South,171,0.0,2.0,85,0.00,,---,0.00,VWS V14.00,2013-08-21 04:55:00,
2013-08-20 23:57:00,70.4,65.7,29.87,South,171,0.0,1.0,85,0.00,,---,0.00,VWS V14.00,2013-08-21 04:57:00,